首页
METAR-TAF:

METAR-TAF

机场 :

凱恩斯國際機場

凱恩斯, 澳大利亚

纬度: 16-53S, 经度: 145-45E, 海拔: 3米

当前天气观测

该预报发布于36分钟前的14:00 UTC
风速3节,风向西
温度 25°C
湿度 94%
气压 1008 hPa
能见度10公里或以上
散云层高于3000英尺
多云层高于4200英尺

METAR: YBCS 261400Z AUTO 27003KT 9999 // SCT030 BKN042 25/24 Q1008 INTER 1400/1700 3000 SHRA BKN010

时间: 00:36 (14:36 UTC)

预报

该预报发布于3小时和18分钟前的11:18 UTC
预报有效从26日的 12点(UTC)到 27日的 12点(UTC)
风速3节,风向多变
能见度10公里或以上
少量云层高于500英尺
散云层高于1000英尺
多云层高于2500英尺
小阵雨
从 27日的 0100点(UTC)
风速7节,风向东转东北
能見度: 1000
散云层高于1500英尺
多云层高于2500英尺
散云层高于500英尺
多云层高于1000英尺
小阵雨, 阵雨
几率 30% :
短暂存在
从 26日的 14点(UTC)到 27日的 04点(UTC)
风速20节,风向多变,有时为35节阵风
能見度: 0500
多云层高于500英尺
散云层高于2000英尺, 积雨云.
雷暴, 雨

TAF: YBCS 261118Z 2612/2712 VRB03KT 9999 -SHRA FEW005 SCT010 BKN025 FM270100 06007KT 9999 -SHRA SCT015 BKN025 INTER 2612/2712 1000 SHRA SCT005 BKN010 PROB30 TEMPO 2614/2704 VRB20G35KT 0500 TSRA BKN005 SCT020CB

超过4000个机场的气象观测和天气预报(METAR&TAF报告)。

可查询的气象台以黄色和红色小点在地图上表示。

将鼠标移到小点上方,可查看气象台名称。

然后点击查看天气观测和预报。

如需切换地图:点击带黑十字的绿色按钮放大地图;点击带横线的绿色按钮缩小地图;或者点击绿色箭头查看邻近地区的地图。


METAR-TAF: